<?xml version="1.0" encoding="UTF-8" standalone="no" ?>
<gpx xmlns="http://www.topografix.com/GPX/1/1" xmlns:xsi="http://www.w3.org/2001/XMLSchema-instance" xsi:schemaLocation="http://www.topografix.com/GPX/1/1 http://www.topografix.com/GPX/1/1/gpx.xsd" version="1.1" creator="VisuGPX - https://www.visugpx.com">
  <metadata>
    <name>luzech 6 descentes</name>
    <desc><![CDATA[parcours typé enduro avec de belles descentes]]></desc>
  </metadata>
  <trk>
    <name><![CDATA[2014-04-01-08-18-57]]></name>
    <trkseg>
      <trkpt lat="44.44667" lon="1.30564">
        <ele>140.906</ele>
        <time>2014-04-01T11:05:29Z</time>
      </trkpt>
      <trkpt lat="44.44656" lon="1.30586">
        <ele>140.386</ele>
        <time>2014-04-01T11:05:36Z</time>
      </trkpt>
      <trkpt lat="44.44643" lon="1.30597">
        <ele>142.007</ele>
        <time>2014-04-01T11:05:42Z</time>
      </trkpt>
      <trkpt lat="44.4462" lon="1.30611">
        <ele>144.666</ele>
        <time>2014-04-01T11:05:51Z</time>
      </trkpt>
      <trkpt lat="44.44601" lon="1.30623">
        <ele>144.306</ele>
        <time>2014-04-01T11:05:58Z</time>
      </trkpt>
      <trkpt lat="44.44588" lon="1.30633">
        <ele>144.786</ele>
        <time>2014-04-01T11:06:03Z</time>
      </trkpt>
      <trkpt lat="44.4457" lon="1.30646">
        <ele>146.157</ele>
        <time>2014-04-01T11:06:10Z</time>
      </trkpt>
      <trkpt lat="44.44548" lon="1.30665">
        <ele>143.726</ele>
        <time>2014-04-01T11:06:19Z</time>
      </trkpt>
      <trkpt lat="44.44529" lon="1.30683">
        <ele>141.676</ele>
        <time>2014-04-01T11:06:26Z</time>
      </trkpt>
      <trkpt lat="44.4451" lon="1.30707">
        <ele>140.775</ele>
        <time>2014-04-01T11:06:34Z</time>
      </trkpt>
      <trkpt lat="44.4451" lon="1.30726">
        <ele>140.385</ele>
        <time>2014-04-01T11:06:38Z</time>
      </trkpt>
      <trkpt lat="44.44517" lon="1.30744">
        <ele>139.755</ele>
        <time>2014-04-01T11:06:42Z</time>
      </trkpt>
      <trkpt lat="44.44512" lon="1.30759">
        <ele>140.006</ele>
        <time>2014-04-01T11:06:47Z</time>
      </trkpt>
      <trkpt lat="44.44503" lon="1.30766">
        <ele>139.806</ele>
        <time>2014-04-01T11:06:51Z</time>
      </trkpt>
      <trkpt lat="44.44484" lon="1.30785">
        <ele>140.965</ele>
        <time>2014-04-01T11:07:00Z</time>
      </trkpt>
      <trkpt lat="44.44469" lon="1.30806">
        <ele>142.836</ele>
        <time>2014-04-01T11:07:08Z</time>
      </trkpt>
      <trkpt lat="44.44458" lon="1.30831">
        <ele>143.375</ele>
        <time>2014-04-01T11:07:16Z</time>
      </trkpt>
      <trkpt lat="44.44447" lon="1.30852">
        <ele>144.206</ele>
        <time>2014-04-01T11:07:24Z</time>
      </trkpt>
      <trkpt lat="44.4443" lon="1.30866">
        <ele>143.425</ele>
        <time>2014-04-01T11:07:31Z</time>
      </trkpt>
      <trkpt lat="44.44427" lon="1.30868">
        <ele>143.285</ele>
        <time>2014-04-01T11:07:32Z</time>
      </trkpt>
      <trkpt lat="44.44409" lon="1.30871">
        <ele>140.634</ele>
        <time>2014-04-01T11:07:36Z</time>
      </trkpt>
      <trkpt lat="44.4437" lon="1.30875">
        <ele>140.286</ele>
        <time>2014-04-01T11:07:45Z</time>
      </trkpt>
      <trkpt lat="44.44346" lon="1.3088">
        <ele>141.056</ele>
        <time>2014-04-01T11:07:52Z</time>
      </trkpt>
      <trkpt lat="44.44321" lon="1.30882">
        <ele>142.866</ele>
        <time>2014-04-01T11:08:00Z</time>
      </trkpt>
      <trkpt lat="44.44293" lon="1.30878">
        <ele>143.126</ele>
        <time>2014-04-01T11:08:10Z</time>
      </trkpt>
      <trkpt lat="44.44276" lon="1.30871">
        <ele>143.846</ele>
        <time>2014-04-01T11:08:18Z</time>
      </trkpt>
      <trkpt lat="44.44256" lon="1.30867">
        <ele>145.775</ele>
        <time>2014-04-01T11:08:28Z</time>
      </trkpt>
      <trkpt lat="44.44242" lon="1.30866">
        <ele>146.685</ele>
        <time>2014-04-01T11:08:35Z</time>
      </trkpt>
      <trkpt lat="44.44224" lon="1.30865">
        <ele>147.255</ele>
        <time>2014-04-01T11:08:44Z</time>
      </trkpt>
      <trkpt lat="44.44209" lon="1.30865">
        <ele>148.856</ele>
        <time>2014-04-01T11:08:52Z</time>
      </trkpt>
      <trkpt lat="44.44192" lon="1.30864">
        <ele>151.706</ele>
        <time>2014-04-01T11:09:01Z</time>
      </trkpt>
      <trkpt lat="44.44174" lon="1.30865">
        <ele>154.206</ele>
        <time>2014-04-01T11:09:11Z</time>
      </trkpt>
      <trkpt lat="44.44155" lon="1.30871">
        <ele>156.295</ele>
        <time>2014-04-01T11:09:21Z</time>
      </trkpt>
      <trkpt lat="44.4414" lon="1.30876">
        <ele>156.436</ele>
        <time>2014-04-01T11:09:28Z</time>
      </trkpt>
      <trkpt lat="44.4412" lon="1.3088">
        <ele>156.614</ele>
        <time>2014-04-01T11:09:35Z</time>
      </trkpt>
      <trkpt lat="44.44097" lon="1.30888">
        <ele>157.594</ele>
        <time>2014-04-01T11:09:43Z</time>
      </trkpt>
      <trkpt lat="44.44073" lon="1.30902">
        <ele>156.734</ele>
        <time>2014-04-01T11:09:51Z</time>
      </trkpt>
      <trkpt lat="44.44049" lon="1.30912">
        <ele>155.553</ele>
        <time>2014-04-01T11:09:57Z</time>
      </trkpt>
      <trkpt lat="44.44013" lon="1.30923">
        <ele>155.094</ele>
        <time>2014-04-01T11:10:05Z</time>
      </trkpt>
      <trkpt lat="44.43979" lon="1.30931">
        <ele>155.244</ele>
        <time>2014-04-01T11:10:14Z</time>
      </trkpt>
      <trkpt lat="44.43955" lon="1.30945">
        <ele>155.544</ele>
        <time>2014-04-01T11:10:22Z</time>
      </trkpt>
      <trkpt lat="44.43935" lon="1.30963">
        <ele>156.684</ele>
        <time>2014-04-01T11:10:31Z</time>
      </trkpt>
      <trkpt lat="44.43919" lon="1.30975">
        <ele>156.974</ele>
        <time>2014-04-01T11:10:38Z</time>
      </trkpt>
      <trkpt lat="44.43902" lon="1.30991">
        <ele>158.954</ele>
        <time>2014-04-01T11:10:47Z</time>
      </trkpt>
      <trkpt lat="44.43885" lon="1.31016">
        <ele>161.394</ele>
        <time>2014-04-01T11:10:57Z</time>
      </trkpt>
      <trkpt lat="44.43873" lon="1.31038">
        <ele>163.484</ele>
        <time>2014-04-01T11:11:06Z</time>
      </trkpt>
      <trkpt lat="44.43864" lon="1.31054">
        <ele>165.394</ele>
        <time>2014-04-01T11:11:14Z</time>
      </trkpt>
      <trkpt lat="44.43863" lon="1.31069">
        <ele>166.844</ele>
        <time>2014-04-01T11:11:21Z</time>
      </trkpt>
      <trkpt lat="44.43864" lon="1.31087">
        <ele>168.383</ele>
        <time>2014-04-01T11:11:27Z</time>
      </trkpt>
      <trkpt lat="44.43868" lon="1.31111">
        <ele>169.894</ele>
        <time>2014-04-01T11:11:33Z</time>
      </trkpt>
      <trkpt lat="44.43867" lon="1.31133">
        <ele>170.944</ele>
        <time>2014-04-01T11:11:38Z</time>
      </trkpt>
      <trkpt lat="44.43865" lon="1.31157">
        <ele>170.664</ele>
        <time>2014-04-01T11:11:44Z</time>
      </trkpt>
      <trkpt lat="44.43858" lon="1.31177">
        <ele>171.504</ele>
        <time>2014-04-01T11:11:50Z</time>
      </trkpt>
      <trkpt lat="44.43849" lon="1.31205">
        <ele>173.855</ele>
        <time>2014-04-01T11:11:58Z</time>
      </trkpt>
      <trkpt lat="44.43845" lon="1.31221">
        <ele>173.914</ele>
        <time>2014-04-01T11:12:03Z</time>
      </trkpt>
      <trkpt lat="44.43837" lon="1.31241">
        <ele>174.373</ele>
        <time>2014-04-01T11:12:10Z</time>
      </trkpt>
      <trkpt lat="44.43825" lon="1.31254">
        <ele>173.333</ele>
        <time>2014-04-01T11:12:17Z</time>
      </trkpt>
      <trkpt lat="44.43815" lon="1.31268">
        <ele>173.093</ele>
        <time>2014-04-01T11:12:24Z</time>
      </trkpt>
      <trkpt lat="44.43806" lon="1.31282">
        <ele>173.533</ele>
        <time>2014-04-01T11:12:31Z</time>
      </trkpt>
      <trkpt lat="44.438" lon="1.31296">
        <ele>174.364</ele>
        <time>2014-04-01T11:12:37Z</time>
      </trkpt>
      <trkpt lat="44.43791" lon="1.31314">
        <ele>177.015</ele>
        <time>2014-04-01T11:12:44Z</time>
      </trkpt>
      <trkpt lat="44.43779" lon="1.31336">
        <ele>180.545</ele>
        <time>2014-04-01T11:12:53Z</time>
      </trkpt>
      <trkpt lat="44.43771" lon="1.31351">
        <ele>182.035</ele>
        <time>2014-04-01T11:12:59Z</time>
      </trkpt>
      <trkpt lat="44.43762" lon="1.31373">
        <ele>183.154</ele>
        <time>2014-04-01T11:13:07Z</time>
      </trkpt>
      <trkpt lat="44.43754" lon="1.31391">
        <ele>181.573</ele>
        <time>2014-04-01T11:13:13Z</time>
      </trkpt>
      <trkpt lat="44.43743" lon="1.31409">
        <ele>181.613</ele>
        <time>2014-04-01T11:13:20Z</time>
      </trkpt>
      <trkpt lat="44.43734" lon="1.31424">
        <ele>181.743</ele>
        <time>2014-04-01T11:13:26Z</time>
      </trkpt>
      <trkpt lat="44.43725" lon="1.31437">
        <ele>182.374</ele>
        <time>2014-04-01T11:13:32Z</time>
      </trkpt>
      <trkpt lat="44.43716" lon="1.31458">
        <ele>183.804</ele>
        <time>2014-04-01T11:13:41Z</time>
      </trkpt>
      <trkpt lat="44.43707" lon="1.31471">
        <ele>185.284</ele>
        <time>2014-04-01T11:13:47Z</time>
      </trkpt>
      <trkpt lat="44.43695" lon="1.31491">
        <ele>185.304</ele>
        <time>2014-04-01T11:13:55Z</time>
      </trkpt>
      <trkpt lat="44.4368" lon="1.31505">
        <ele>186.054</ele>
        <time>2014-04-01T11:14:04Z</time>
      </trkpt>
      <trkpt lat="44.4367" lon="1.31515">
        <ele>186.504</ele>
        <time>2014-04-01T11:14:10Z</time>
      </trkpt>
      <trkpt lat="44.43658" lon="1.31527">
        <ele>187.234</ele>
        <time>2014-04-01T11:14:17Z</time>
      </trkpt>
      <trkpt lat="44.43646" lon="1.31541">
        <ele>188.984</ele>
        <time>2014-04-01T11:14:25Z</time>
      </trkpt>
      <trkpt lat="44.43636" lon="1.31551">
        <ele>189.754</ele>
        <time>2014-04-01T11:14:32Z</time>
      </trkpt>
      <trkpt lat="44.43628" lon="1.31559">
        <ele>188.933</ele>
        <time>2014-04-01T11:14:39Z</time>
      </trkpt>
      <trkpt lat="44.43621" lon="1.31568">
        <ele>188.933</ele>
        <time>2014-04-01T11:14:45Z</time>
      </trkpt>
      <trkpt lat="44.43615" lon="1.31576">
        <ele>190.634</ele>
        <time>2014-04-01T11:14:51Z</time>
      </trkpt>
      <trkpt lat="44.43608" lon="1.31587">
        <ele>193.764</ele>
        <time>2014-04-01T11:14:58Z</time>
      </trkpt>
      <trkpt lat="44.43605" lon="1.31592">
        <ele>194.074</ele>
        <time>2014-04-01T11:15:01Z</time>
      </trkpt>
      <trkpt lat="44.43597" lon="1.31604">
        <ele>194.924</ele>
        <time>2014-04-01T11:15:08Z</time>
      </trkpt>
      <trkpt lat="44.43589" lon="1.3162">
        <ele>194.963</ele>
        <time>2014-04-01T11:15:16Z</time>
      </trkpt>
      <trkpt lat="44.43582" lon="1.31631">
        <ele>196.404</ele>
        <time>2014-04-01T11:15:23Z</time>
      </trkpt>
      <trkpt lat="44.43574" lon="1.31643">
        <ele>196.993</ele>
        <time>2014-04-01T11:15:30Z</time>
      </trkpt>
      <trkpt lat="44.43567" lon="1.31654">
        <ele>197.303</ele>
        <time>2014-04-01T11:15:36Z</time>
      </trkpt>
      <trkpt lat="44.43558" lon="1.31669">
        <ele>197.143</ele>
        <time>2014-04-01T11:15:43Z</time>
      </trkpt>
      <trkpt lat="44.43551" lon="1.3168">
        <ele>196.083</ele>
        <time>2014-04-01T11:15:49Z</time>
      </trkpt>
      <trkpt lat="44.4354" lon="1.31696">
        <ele>197.174</ele>
        <time>2014-04-01T11:15:58Z</time>
      </trkpt>
      <trkpt lat="44.43533" lon="1.31708">
        <ele>199.264</ele>
        <time>2014-04-01T11:16:05Z</time>
      </trkpt>
      <trkpt lat="44.43525" lon="1.31719">
        <ele>201.184</ele>
        <time>2014-04-01T11:16:12Z</time>
      </trkpt>
      <trkpt lat="44.43519" lon="1.31734">
        <ele>203.444</ele>
        <time>2014-04-01T11:16:20Z</time>
      </trkpt>
      <trkpt lat="44.43512" lon="1.31745">
        <ele>203.163</ele>
        <time>2014-04-01T11:16:26Z</time>
      </trkpt>
      <trkpt lat="44.43503" lon="1.31754">
        <ele>201.183</ele>
        <time>2014-04-01T11:16:33Z</time>
      </trkpt>
      <trkpt lat="44.43489" lon="1.31765">
        <ele>198.883</ele>
        <time>2014-04-01T11:16:42Z</time>
      </trkpt>
      <trkpt lat="44.4348" lon="1.31776">
        <ele>201.504</ele>
        <time>2014-04-01T11:16:49Z</time>
      </trkpt>
      <trkpt lat="44.43472" lon="1.31786">
        <ele>203.554</ele>
        <time>2014-04-01T11:16:56Z</time>
      </trkpt>
      <trkpt lat="44.43462" lon="1.31799">
        <ele>204.423</ele>
        <time>2014-04-01T11:17:04Z</time>
      </trkpt>
      <trkpt lat="44.4345" lon="1.31813">
        <ele>202.433</ele>
        <time>2014-04-01T11:17:13Z</time>
      </trkpt>
      <trkpt lat="44.43441" lon="1.31822">
        <ele>203.293</ele>
        <time>2014-04-01T11:17:20Z</time>
      </trkpt>
      <trkpt lat="44.43432" lon="1.3183">
        <ele>204.273</ele>
        <time>2014-04-01T11:17:27Z</time>
      </trkpt>
      <trkpt lat="44.43421" lon="1.3184">
        <ele>205.063</ele>
        <time>2014-04-01T11:17:35Z</time>
      </trkpt>
      <trkpt lat="44.43412" lon="1.31847">
        <ele>207.915</ele>
        <time>2014-04-01T11:17:42Z</time>
      </trkpt>
      <trkpt lat="44.43404" lon="1.31854">
        <ele>210.764</ele>
        <time>2014-04-01T11:17:48Z</time>
      </trkpt>
      <trkpt lat="44.43392" lon="1.31867">
        <ele>211.633</ele>
        <time>2014-04-01T11:17:57Z</time>
      </trkpt>
      <trkpt lat="44.43388" lon="1.31872">
        <ele>212.174</ele>
        <time>2014-04-01T11:18:00Z</time>
      </trkpt>
      <trkpt lat="44.43378" lon="1.31889">
        <ele>210.724</ele>
        <time>2014-04-01T11:18:08Z</time>
      </trkpt>
      <trkpt lat="44.4337" lon="1.31901">
        <ele>211.163</ele>
        <time>2014-04-01T11:18:14Z</time>
      </trkpt>
      <trkpt lat="44.4336" lon="1.31917">
        <ele>210.413</ele>
        <time>2014-04-01T11:18:22Z</time>
      </trkpt>
      <trkpt lat="44.43348" lon="1.31928">
        <ele>212.194</ele>
        <time>2014-04-01T11:18:29Z</time>
      </trkpt>
      <trkpt lat="44.43333" lon="1.31936">
        <ele>213.904</ele>
        <time>2014-04-01T11:18:37Z</time>
      </trkpt>
      <trkpt lat="44.43319" lon="1.31942">
        <ele>215.344</ele>
        <time>2014-04-01T11:18:44Z</time>
      </trkpt>
      <trkpt lat="44.43306" lon="1.31949">
        <ele>215.534</ele>
        <time>2014-04-01T11:18:49Z</time>
      </trkpt>
      <trkpt lat="44.43289" lon="1.31963">
        <ele>213.883</ele>
        <time>2014-04-01T11:18:55Z</time>
      </trkpt>
      <trkpt lat="44.43275" lon="1.31976">
        <ele>213.604</ele>
        <time>2014-04-01T11:19:01Z</time>
      </trkpt>
      <trkpt lat="44.4326" lon="1.31993">
        <ele>213.993</ele>
        <time>2014-04-01T11:19:09Z</time>
      </trkpt>
      <trkpt lat="44.43251" lon="1.32006">
        <ele>215.114</ele>
        <time>2014-04-01T11:19:15Z</time>
      </trkpt>
      <trkpt lat="44.43252" lon="1.32019">
        <ele>216.474</ele>
        <time>2014-04-01T11:19:19Z</time>
      </trkpt>
      <trkpt lat="44.43253" lon="1.32034">
        <ele>218.194</ele>
        <time>2014-04-01T11:19:24Z</time>
      </trkpt>
      <trkpt lat="44.43243" lon="1.32056">
        <ele>219.603</ele>
        <time>2014-04-01T11:19:33Z</time>
      </trkpt>
      <trkpt lat="44.43235" lon="1.32076">
        <ele>219.493</ele>
        <time>2014-04-01T11:19:41Z</time>
      </trkpt>
      <trkpt lat="44.43227" lon="1.32097">
        <ele>219.724</ele>
        <time>2014-04-01T11:19:49Z</time>
      </trkpt>
      <trkpt lat="44.43223" lon="1.32117">
        <ele>221.063</ele>
        <time>2014-04-01T11:19:56Z</time>
      </trkpt>
      <trkpt lat="44.43218" lon="1.32131">
        <ele>222.013</ele>
        <time>2014-04-01T11:20:02Z</time>
      </trkpt>
      <trkpt lat="44.43216" lon="1.32132">
        <ele>222.024</ele>
        <time>2014-04-01T11:20:03Z</time>
      </trkpt>
      <trkpt lat="44.43203" lon="1.32132">
        <ele>222.913</ele>
        <time>2014-04-01T11:20:09Z</time>
      </trkpt>
      <trkpt lat="44.43193" lon="1.32125">
        <ele>222.133</ele>
        <time>2014-04-01T11:20:13Z</time>
      </trkpt>
      <trkpt lat="44.43172" lon="1.32104">
        <ele>223.103</ele>
        <time>2014-04-01T11:20:21Z</time>
      </trkpt>
      <trkpt lat="44.43162" lon="1.32098">
        <ele>224.824</ele>
        <time>2014-04-01T11:20:26Z</time>
      </trkpt>
      <trkpt lat="44.43152" lon="1.32092">
        <ele>226.754</ele>
        <time>2014-04-01T11:20:32Z</time>
      </trkpt>
      <trkpt lat="44.43141" lon="1.32088">
        <ele>229.654</ele>
        <time>2014-04-01T11:20:40Z</time>
      </trkpt>
      <trkpt lat="44.43129" lon="1.3209">
        <ele>233.995</ele>
        <time>2014-04-01T11:20:48Z</time>
      </trkpt>
      <trkpt lat="44.43119" lon="1.32094">
        <ele>236.524</ele>
        <time>2014-04-01T11:20:56Z</time>
      </trkpt>
      <trkpt lat="44.43106" lon="1.32104">
        <ele>235.734</ele>
        <time>2014-04-01T11:21:04Z</time>
      </trkpt>
      <trkpt lat="44.43096" lon="1.3211">
        <ele>235.523</ele>
        <time>2014-04-01T11:21:11Z</time>
      </trkpt>
      <trkpt lat="44.43085" lon="1.32115">
        <ele>236.783</ele>
        <time>2014-04-01T11:21:19Z</time>
      </trkpt>
      <trkpt lat="44.43075" lon="1.32119">
        <ele>237.723</ele>
        <time>2014-04-01T11:21:26Z</time>
      </trkpt>
      <trkpt lat="44.43064" lon="1.32122">
        <ele>238.043</ele>
        <time>2014-04-01T11:21:33Z</time>
      </trkpt>
      <trkpt lat="44.43053" lon="1.32126">
        <ele>239.843</ele>
        <time>2014-04-01T11:21:41Z</time>
      </trkpt>
      <trkpt lat="44.43042" lon="1.32131">
        <ele>241.963</ele>
        <time>2014-04-01T11:21:49Z</time>
      </trkpt>
      <trkpt lat="44.4303" lon="1.32133">
        <ele>242.793</ele>
        <time>2014-04-01T11:21:57Z</time>
      </trkpt>
      <trkpt lat="44.43019" lon="1.32134">
        <ele>244.614</ele>
        <time>2014-04-01T11:22:05Z</time>
      </trkpt>
      <trkpt lat="44.43008" lon="1.32134">
        <ele>246.104</ele>
        <time>2014-04-01T11:22:12Z</time>
      </trkpt>
      <trkpt lat="44.43001" lon="1.32134">
        <ele>249.175</ele>
        <time>2014-04-01T11:22:18Z</time>
      </trkpt>
      <trkpt lat="44.4299" lon="1.32134">
        <ele>251.904</ele>
        <time>2014-04-01T11:22:25Z</time>
      </trkpt>
      <trkpt lat="44.4298" lon="1.32136">
        <ele>253.423</ele>
        <time>2014-04-01T11:22:32Z</time>
      </trkpt>
      <trkpt lat="44.42966" lon="1.32144">
        <ele>251.642</ele>
        <time>2014-04-01T11:22:40Z</time>
      </trkpt>
      <trkpt lat="44.42953" lon="1.3215">
        <ele>252.062</ele>
        <time>2014-04-01T11:22:48Z</time>
      </trkpt>
      <trkpt lat="44.4294" lon="1.32155">
        <ele>253.192</ele>
        <time>2014-04-01T11:22:56Z</time>
      </trkpt>
      <trkpt lat="44.42927" lon="1.32163">
        <ele>253.892</ele>
        <time>2014-04-01T11:23:04Z</time>
      </trkpt>
      <trkpt lat="44.42917" lon="1.32169">
        <ele>255.433</ele>
        <time>2014-04-01T11:23:12Z</time>
      </trkpt>
      <trkpt lat="44.42905" lon="1.32176">
        <ele>255.962</ele>
        <time>2014-04-01T11:23:20Z</time>
      </trkpt>
      <trkpt lat="44.42896" lon="1.32179">
        <ele>257.203</ele>
        <time>2014-04-01T11:23:27Z</time>
      </trkpt>
      <trkpt lat="44.42886" lon="1.32175">
        <ele>257.073</ele>
        <time>2014-04-01T11:23:34Z</time>
      </trkpt>
      <trkpt lat="44.42878" lon="1.32177">
        <ele>259.413</ele>
        <time>2014-04-01T11:23:39Z</time>
      </trkpt>
      <trkpt lat="44.42877" lon="1.32178">
        <ele>259.743</ele>
        <time>2014-04-01T11:23:40Z</time>
      </trkpt>
      <trkpt lat="44.42867" lon="1.32185">
        <ele>261.313</ele>
        <time>2014-04-01T11:23:48Z</time>
      </trkpt>
      <trkpt lat="44.42858" lon="1.32189">
        <ele>262.142</ele>
        <time>2014-04-01T11:23:55Z</time>
      </trkpt>
      <trkpt lat="44.42847" lon="1.32194">
        <ele>261.611</ele>
        <time>2014-04-01T11:24:03Z</time>
      </trkpt>
      <trkpt lat="44.42837" lon="1.32199">
        <ele>261.682</ele>
        <time>2014-04-01T11:24:11Z</time>
      </trkpt>
      <trkpt lat="44.42825" lon="1.32202">
        <ele>262.792</ele>
        <time>2014-04-01T11:24:20Z</time>
      </trkpt>
      <trkpt lat="44.42819" lon="1.32197">
        <ele>262.292</ele>
        <time>2014-04-01T11:24:26Z</time>
      </trkpt>
      <trkpt lat="44.42814" lon="1.32192">
        <ele>264.602</ele>
        <time>2014-04-01T11:24:32Z</time>
      </trkpt>
      <trkpt lat="44.42813" lon="1.32192">
        <ele>266.056</ele>
        <time>2014-04-01T11:24:34Z</time>
      </trkpt>
    </trkseg>
  </trk>
</gpx>